Terminal Aerodrome Forecast
Issued by NWS

Home | Current Version | Previous Version | Graphics & Text | Print | Product List | Glossary On
Versions: 1 2 3 4 5 6 7 8 9 10 11 12 13 14 15 16 17 18 19 20 21
851
FTUS42 KMHX 210540 AAA
TAFISO
TAF AMD
KISO 210540Z 2106/2206 00000KT 1/2SM FG OVC002
     FM211300 08003KT 2SM BR OVC003
     FM211500 13005KT P6SM BKN007
     FM211800 16004KT P6SM BKN010
     FM212100 17004KT P6SM -SHRA BKN007
     FM220400 18004KT 5SM SHRA BR OVC003
      AMD LTD TO CLD VIS AND WIND=

USA.gov is the U.S. government's official web portal to all federal, state and local government web resources and services.